Time;durP1;ratioP1;P1;durP2;ratioP2;P2;SDS_P1;SDS_P2;PMS_P1;PMS_P2;Temp;Humidity;BMP_temperature;BMP_pressure;BME280_temperature;BME280_humidity;BME280_pressure;Samples;Min_cycle;Max_cycle;Signal;HPM_P1;HPM_P2
2022/06/27 00:02:06;;;;;;;;;;;;;;;-141.48;100.00;69781.59;5174468;28;20138;-84
2022/06/27 00:04:36;;;;;;;;;;;;;;;-141.48;100.00;69781.59;5173763;28;20203;-83
2022/06/27 00:07:07;;;;;;;;;;;;;;;-141.48;100.00;69781.59;5155570;23;19929;-79
2022/06/27 00:09:37;;;;;;;;;;;;;;;-141.48;100.00;69781.59;5140540;28;19914;-79
2022/06/27 00:12:08;;;;;;;;;;;;;;;-141.48;100.00;69781.59;5125172;29;20040;-79
2022/06/27 00:14:39;;;;;;;;;;;;;;;-141.48;100.00;69781.59;5143926;29;19911;-79
2022/06/27 00:17:09;;;;;;;;;;;;;;;-141.48;100.00;69781.59;5145367;28;19898;-81
2022/06/27 00:19:39;;;;;;;;;;;;;;;-141.48;100.00;69781.59;5138780;28;19976;-80
2022/06/27 00:22:09;;;;;;;;;;;;;;;-141.48;100.00;69781.59;5148054;28;19917;-78
2022/06/27 00:24:40;;;;;;;;;;;;;;;-141.48;100.00;69781.59;5134408;28;20296;-79
2022/06/27 00:27:10;;;;;;;;;;;;;;;-141.48;100.00;69781.59;5131728;29;19933;-79
2022/06/27 00:29:41;;;;;;;;;;;;;;;-141.48;100.00;69781.59;5131890;28;19911;-79
2022/06/27 00:32:12;;;;;;;;;;;;;;;-141.48;100.00;69781.59;5130638;28;19937;-80
2022/06/27 00:34:42;;;;;;;;;;;;;;;-141.48;100.00;69781.59;5132666;29;19917;-80
2022/06/27 00:39:50;;;;;;;;;;;;;;;-141.48;100.00;69781.59;5187962;23;19928;-92
2022/06/27 00:42:21;;;;;;;;;;;;;;;-141.48;100.00;69781.59;5162143;28;20210;-93
2022/06/27 00:44:51;;;;;;;;;;;;;;;-141.48;100.00;69781.59;5177631;28;19922;-93
2022/06/27 00:47:21;;;;;;;;;;;;;;;-141.48;100.00;69781.59;5141577;28;20032;-93
2022/06/27 00:49:52;;;;;;;;;;;;;;;-141.48;100.00;69781.59;5142274;28;19916;-93
2022/06/27 00:52:22;;;;;;;;;;;;;;;-141.48;100.00;69781.59;5140950;28;19966;-92
2022/06/27 00:54:55;;;;;;;;;;;;;;;-141.48;100.00;69781.59;5141639;28;19930;-93
2022/06/27 00:57:27;;;;;;;;;;;;;;;-141.48;100.00;69781.59;5140385;28;19910;-92
2022/06/27 01:00:00;;;;;;;;;;;;;;;-141.48;100.00;69781.59;5140851;28;20341;-92
2022/06/27 01:02:30;;;;;;;;;;;;;;;-141.48;100.00;69781.59;5140658;28;19945;-93
2022/06/27 01:05:01;;;;;;;;;;;;;;;-141.48;100.00;69781.59;5141491;28;19914;-94
2022/06/27 01:07:31;;;;;;;;;;;;;;;-141.48;100.00;69781.59;5143528;28;19953;-93
2022/06/27 01:10:02;;;;;;;;;;;;;;;-141.48;100.00;69781.59;5156652;28;19921;-94
2022/06/27 01:12:33;;;;;;;;;;;;;;;-141.48;100.00;69781.59;5157687;28;19909;-94
2022/06/27 01:15:07;;;;;;;;;;;;;;;-141.48;100.00;69781.59;5141905;28;19909;-93
2022/06/27 01:17:38;;;;;;;;;;;;;;;-141.48;100.00;69781.59;5158750;28;20001;-94
2022/06/27 01:20:08;;;;;;;;;;;;;;;-141.48;100.00;69781.59;5142946;28;19914;-94
2022/06/27 01:22:44;;;;;;;;;;;;;;;-141.48;100.00;69781.59;5141087;28;19956;-94
2022/06/27 01:25:18;;;;;;;;;;;;;;;-141.48;100.00;69781.59;5158766;28;20052;-93
2022/06/27 01:27:48;;;;;;;;;;;;;;;-141.48;100.00;69781.59;5141855;28;19910;-94
2022/06/27 01:30:20;;;;;;;;;;;;;;;-141.48;100.00;69781.59;5140833;28;19910;-93
2022/06/27 01:32:50;;;;;;;;;;;;;;;24.50;100.00;101495.22;5139924;28;19926;-92
2022/06/27 01:35:21;;;;;;;;;;;;;;;24.50;100.00;101495.22;5138701;28;20295;-93
2022/06/27 01:37:51;;;;;;;;;;;;;;;17.28;100.00;101488.09;5156950;28;20272;-94
2022/06/27 01:40:21;;;;;;;;;;;;;;;17.26;100.00;101492.19;5139690;28;20347;-92
2022/06/27 01:42:52;;;;;;;;;;;;;;;17.26;100.00;101492.19;5156589;28;19910;-93
2022/06/27 01:45:22;;;;;;;;;;;;;;;-141.48;100.00;69781.59;5139446;28;20260;-94
2022/06/27 01:47:53;;;;;;;;;;;;;;;-141.48;100.00;69781.59;5140219;28;19910;-94
2022/06/27 01:50:24;;;;;;;;;;;;;;;-141.48;100.00;69781.59;5140770;28;20260;-93
2022/06/27 01:52:55;;;;;;;;;;;;;;;-141.48;100.00;69781.59;5140126;28;19910;-92
2022/06/27 01:55:25;;;;;;;;;;;;;;;-141.48;100.00;69781.59;5157001;28;19914;-93
2022/06/27 01:57:57;;;;;;;;;;;;;;;-141.48;100.00;69781.59;5140619;28;19956;-94
2022/06/27 02:00:27;;;;;;;;;;;;;;;-141.48;100.00;69781.59;5140846;28;20001;-95
2022/06/27 02:02:58;;;;;;;;;;;;;;;-141.48;100.00;69781.59;5141911;28;19917;-93
2022/06/27 02:05:28;;;;;;;;;;;;;;;-141.48;100.00;69781.59;5141744;28;19910;-93
2022/06/27 02:08:00;;;;;;;;;;;;;;;-141.48;100.00;69781.59;5158813;28;19917;-93
2022/06/27 02:10:30;;;;;;;;;;;;;;;-141.48;100.00;69781.59;5140990;28;19945;-93
2022/06/27 02:13:02;;;;;;;;;;;;;;;-141.48;100.00;69781.59;5159575;28;20456;-93
2022/06/27 02:15:32;;;;;;;;;;;;;;;-141.48;100.00;69781.59;5158164;28;19976;-93
2022/06/27 02:18:02;;;;;;;;;;;;;;;-141.48;100.00;69781.59;5160035;28;19945;-93
2022/06/27 02:20:33;;;;;;;;;;;;;;;-141.48;100.00;69781.59;5153975;28;19933;-93
2022/06/27 02:23:03;;;;;;;;;;;;;;;-141.48;100.00;69781.59;5169780;28;19918;-93
2022/06/27 02:25:34;;;;;;;;;;;;;;;-141.48;100.00;69781.59;5152524;28;19914;-93
2022/06/27 02:28:04;;;;;;;;;;;;;;;-141.48;100.00;69781.59;5153075;28;19907;-94
2022/06/27 02:30:34;;;;;;;;;;;;;;;-141.48;100.00;69781.59;5153579;28;19913;-93
2022/06/27 02:33:08;;;;;;;;;;;;;;;-141.48;100.00;69781.59;5167358;28;19925;-93
2022/06/27 02:35:42;;;;;;;;;;;;;;;-141.48;100.00;69781.59;5159475;28;19910;-93
2022/06/27 02:38:13;;;;;;;;;;;;;;;-141.48;100.00;69781.59;5144438;28;19930;-93
2022/06/27 02:40:44;;;;;;;;;;;;;;;-141.48;100.00;69781.59;5158487;28;20376;-93
2022/06/27 02:43:16;;;;;;;;;;;;;;;-141.48;100.00;69781.59;5157668;28;19998;-93
2022/06/27 02:45:46;;;;;;;;;;;;;;;-141.48;100.00;69781.59;5155626;28;19969;-92
2022/06/27 02:48:18;;;;;;;;;;;;;;;-141.48;100.00;69781.59;5155762;28;19968;-93
2022/06/27 02:50:51;;;;;;;;;;;;;;;-141.48;100.00;69781.59;5142000;28;19937;-93
2022/06/27 02:53:24;;;;;;;;;;;;;;;-141.48;100.00;69781.59;5155028;28;19914;-91
2022/06/27 02:55:58;;;;;;;;;;;;;;;-141.48;100.00;69781.59;5157154;28;19910;-92
2022/06/27 02:58:34;;;;;;;;;;;;;;;-141.48;100.00;69781.59;5161094;28;19910;-92
2022/06/27 03:01:05;;;;;;;;;;;;;;;-141.48;100.00;69781.59;5159071;28;19910;-93
2022/06/27 03:03:36;;;;;;;;;;;;;;;-141.48;100.00;69781.59;5142163;28;19920;-93
2022/06/27 03:06:11;;;;;;;;;;;;;;;-141.48;100.00;69781.59;5160119;28;19956;-93
2022/06/27 03:08:42;;;;;;;;;;;;;;;-141.48;100.00;69781.59;5161531;28;19981;-94
2022/06/27 03:11:16;;;;;;;;;;;;;;;-141.48;100.00;69781.59;5161753;28;19977;-93
2022/06/27 03:13:47;;;;;;;;;;;;;;;-141.48;100.00;69781.59;5162946;28;19910;-94
2022/06/27 03:16:33;;;;;;;;;;;;;;;-141.48;0.00;88875.16;5264133;28;20316;-61
2022/06/27 03:19:05;;;;;;;;;;;;;;;-141.48;0.00;88875.16;5263300;28;19999;-58
2022/06/27 03:21:48;;;;;;;;;;;;;;;-141.48;0.00;88875.16;5263006;28;19920;-61
2022/06/27 03:24:22;;;;;;;;;;;;;;;-141.48;0.00;88875.16;5262640;28;19913;-60
2022/06/27 03:26:55;;;;;;;;;;;;;;;-141.48;0.00;88875.16;5262663;28;19913;-60
2022/06/27 03:29:32;;;;;;;;;;;;;;;-141.48;0.00;88875.16;5262657;28;19919;-61
2022/06/27 03:32:03;;;;;;;;;;;;;;;-141.48;0.00;88875.16;5263070;28;20372;-61
2022/06/27 03:34:36;;;;;;;;;;;;;;;-141.48;0.00;88875.16;5262225;28;20398;-61
2022/06/27 03:37:08;;;;;;;;;;;;;;;-141.48;0.00;88875.16;5262706;28;19919;-61
2022/06/27 03:39:41;;;;;;;;;;;;;;;-141.48;0.00;88875.16;5262535;28;19912;-60
2022/06/27 03:43:10;;;;;;;;;;;;;;;-141.48;0.00;88875.16;5262308;28;19912;-61
2022/06/27 03:46:39;;;;;;;;;;;;;;;-141.48;0.00;88875.16;5261796;28;19999;-61
2022/06/27 03:50:01;;;;;;;;;;;;;;;-141.48;0.00;88875.16;5262273;28;19912;-60
2022/06/27 03:53:21;;;;;;;;;;;;;;;-141.48;0.00;88875.16;5262199;28;19916;-61
2022/06/27 03:56:00;;;;;;;;;;;;;;;-141.48;0.00;88875.16;5262162;28;19917;-60
2022/06/27 03:58:35;;;;;;;;;;;;;;;-141.48;0.00;88875.16;5262153;28;19995;-61
2022/06/27 04:01:20;;;;;;;;;;;;;;;-141.48;0.00;88875.16;5262157;28;19912;-60
2022/06/27 04:03:56;;;;;;;;;;;;;;;-141.48;0.00;88875.16;5261493;28;19919;-60
2022/06/27 04:06:39;;;;;;;;;;;;;;;-141.48;0.00;88875.16;5260594;28;19912;-60
2022/06/27 04:09:16;;;;;;;;;;;;;;;-141.48;0.00;88875.16;5261730;28;19916;-58
2022/06/27 04:12:08;;;;;;;;;;;;;;;-141.48;0.00;88875.16;5261624;28;19947;-60
2022/06/27 04:15:13;;;;;;;;;;;;;;;-141.48;0.00;88875.16;5259067;28;19927;-60
2022/06/27 04:17:56;;;;;;;;;;;;;;;-141.48;0.00;88875.16;5261712;28;19955;-60
2022/06/27 04:20:32;;;;;;;;;;;;;;;-141.48;0.00;88875.16;5261314;28;19912;-61
2022/06/27 04:23:03;;;;;;;;;;;;;;;-141.48;0.00;88875.16;5261540;28;19912;-61
2022/06/27 04:25:42;;;;;;;;;;;;;;;-141.48;0.00;88875.16;5260838;28;20295;-60
2022/06/27 04:28:50;;;;;;;;;;;;;;;-141.48;0.00;88875.16;5246520;28;20320;-60
2022/06/27 04:32:20;;;;;;;;;;;;;;;-141.48;0.00;88875.16;5247322;28;19963;-61
2022/06/27 04:34:50;;;;;;;;;;;;;;;-141.48;nan;98197.38;5246827;28;20150;-60
2022/06/27 04:37:23;;;;;;;;;;;;;;;-141.48;0.00;88875.16;5247452;28;19913;-60
2022/06/27 04:39:55;;;;;;;;;;;;;;;-141.48;0.00;88875.16;5247237;28;19966;-59
2022/06/27 04:42:26;;;;;;;;;;;;;;;-141.48;0.00;88875.16;5247278;28;19920;-59
2022/06/27 04:44:59;;;;;;;;;;;;;;;-141.48;0.00;88875.16;5247001;28;20244;-60
2022/06/27 04:47:32;;;;;;;;;;;;;;;-141.48;0.00;88875.16;5247389;28;20399;-61
2022/06/27 04:50:12;;;;;;;;;;;;;;;-141.48;0.00;88875.16;5247358;28;19955;-60
2022/06/27 04:52:55;;;;;;;;;;;;;;;-141.48;0.00;88875.16;5247269;28;19912;-59
2022/06/27 04:55:40;;;;;;;;;;;;;;;-141.48;0.00;88875.16;5246709;28;20023;-60
2022/06/27 04:58:11;;;;;;;;;;;;;;;-141.48;0.00;88875.16;5246457;28;19932;-58
2022/06/27 05:00:46;;;;;;;;;;;;;;;-141.48;0.00;88875.16;5246545;28;19919;-59
2022/06/27 05:03:24;;;;;;;;;;;;;;;-141.48;0.00;88875.16;5245197;28;19954;-58
2022/06/27 05:05:56;;;;;;;;;;;;;;;-141.48;0.00;88875.16;5246056;28;19920;-60
2022/06/27 05:08:37;;;;;;;;;;;;;;;-141.48;0.00;88875.16;5246621;28;19912;-57
2022/06/27 05:11:23;;;;;;;;;;;;;;;-141.48;0.00;88875.16;5246718;28;20018;-57
2022/06/27 05:14:12;;;;;;;;;;;;;;;-141.48;0.00;88875.16;5246364;28;20292;-57
2022/06/27 05:16:58;;;;;;;;;;;;;;;-141.48;0.00;88875.16;5246740;28;20380;-57
2022/06/27 05:19:42;;;;;;;;;;;;;;;-141.48;0.00;88875.16;5246396;28;19912;-58
2022/06/27 05:22:30;;;;;;;;;;;;;;;-141.48;0.00;88875.16;5246583;28;19923;-59
2022/06/27 05:25:08;;;;;;;;;;;;;;;-141.48;0.00;88875.16;5245867;28;20341;-61
2022/06/27 05:27:47;;;;;;;;;;;;;;;-141.48;0.00;88875.16;5243388;28;19912;-59
2022/06/27 05:30:22;;;;;;;;;;;;;;;-141.48;0.00;88875.16;5245485;28;20003;-59
2022/06/27 05:32:56;;;;;;;;;;;;;;;-141.48;0.00;88875.16;5246177;28;19913;-59
2022/06/27 05:35:48;;;;;;;;;;;;;;;-141.48;0.00;88875.16;5243735;28;19959;-59
2022/06/27 05:38:45;;;;;;;;;;;;;;;-141.48;0.00;88875.16;5245203;28;19966;-58
2022/06/27 05:41:29;;;;;;;;;;;;;;;-141.48;0.00;88875.16;5246239;28;19952;-58
2022/06/27 05:44:13;;;;;;;;;;;;;;;-141.48;0.00;88875.16;5245319;28;19923;-59
2022/06/27 05:46:56;;;;;;;;;;;;;;;-141.48;0.00;88875.16;5246075;28;20309;-58
2022/06/27 05:49:30;;;;;;;;;;;;;;;-141.48;0.00;88875.16;5245984;28;20011;-59
2022/06/27 05:52:14;;;;;;;;;;;;;;;-141.48;0.00;88875.16;5245903;28;20502;-59
2022/06/27 05:55:25;;;;;;;;;;;;;;;-141.48;0.00;88875.16;5245542;28;20268;-59
2022/06/27 05:58:20;;;;;;;;;;;;;;;-141.48;0.00;88875.16;5245892;28;19916;-60
2022/06/27 06:01:51;;;;;;;;;;;;;;;-141.48;0.00;88875.16;5245710;28;19913;-58
2022/06/27 06:05:21;;;;;;;;;;;;;;;-141.48;0.00;88875.16;5245438;28;19931;-60
2022/06/27 06:08:50;;;;;;;;;;;;;;;-141.48;0.00;88875.16;5246506;22;19925;-62
2022/06/27 06:11:55;;;;;;;;;;;;;;;-141.48;0.00;88875.16;5228225;28;19917;-62
2022/06/27 06:15:24;;;;;;;;;;;;;;;-141.48;0.00;88875.16;5229174;28;20008;-62
2022/06/27 06:18:35;;;;;;;;;;;;;;;-141.48;0.00;88875.16;5250353;28;20010;-62
2022/06/27 06:21:12;;;;;;;;;;;;;;;-141.48;0.00;88875.16;5250089;28;19916;-62
2022/06/27 06:24:02;;;;;;;;;;;;;;;-141.48;0.00;88875.16;5249727;28;19922;-60
2022/06/27 06:26:55;;;;;;;;;;;;;;;-141.48;0.00;88875.16;5250091;28;20296;-61
2022/06/27 06:30:24;;;;;;;;;;;;;;;-141.48;0.00;88875.16;5250171;28;19998;-62
2022/06/27 06:33:38;;;;;;;;;;;;;;;-141.48;0.00;88875.16;5249829;28;19915;-62
2022/06/27 06:36:48;;;;;;;;;;;;;;;-141.48;0.00;88875.16;5267694;28;20287;-62
2022/06/27 06:39:21;;;;;;;;;;;;;;;-141.48;0.00;88875.16;5248002;28;19912;-62
2022/06/27 06:42:07;;;;;;;;;;;;;;;-141.48;0.00;88875.16;5249667;28;19919;-62
2022/06/27 06:45:05;;;;;;;;;;;;;;;-141.48;0.00;88875.16;5248637;28;19978;-62
2022/06/27 06:47:48;;;;;;;;;;;;;;;-141.48;0.00;88875.16;5249651;28;19968;-62
2022/06/27 06:50:35;;;;;;;;;;;;;;;-141.48;0.00;88875.16;5248958;28;20422;-62
2022/06/27 06:53:13;;;;;;;;;;;;;;;-141.48;0.00;88875.16;5249518;28;19912;-62
2022/06/27 06:56:10;;;;;;;;;;;;;;;-141.48;0.00;88875.16;5249225;28;19962;-64
2022/06/27 06:58:44;;;;;;;;;;;;;;;-141.48;0.00;88875.16;5249574;28;19919;-61
2022/06/27 07:01:14;;;;;;;;;;;;;;;-141.48;0.00;88875.16;5249566;28;19912;-61
2022/06/27 07:03:49;;;;;;;;;;;;;;;-141.48;0.00;88875.16;5249305;28;20287;-62
2022/06/27 07:06:24;;;;;;;;;;;;;;;-141.48;0.00;88875.16;5249252;28;20011;-61
2022/06/27 07:08:57;;;;;;;;;;;;;;;-141.48;0.00;88875.16;5249686;28;20022;-61
2022/06/27 07:11:37;;;;;;;;;;;;;;;-141.48;0.00;88875.16;5249487;28;19957;-61
2022/06/27 07:14:26;;;;;;;;;;;;;;;-141.48;0.00;88875.16;5249306;28;19912;-62
2022/06/27 07:17:13;;;;;;;;;;;;;;;-141.48;0.00;88875.16;5249136;28;19923;-62
2022/06/27 07:19:48;;;;;;;;;;;;;;;-141.48;0.00;88875.16;5249078;28;19932;-62
2022/06/27 07:23:12;;;;;;;;;;;;;;;-141.48;0.00;88875.16;5249334;28;19954;-62
2022/06/27 07:26:22;;;;;;;;;;;;;;;-141.48;0.00;88875.16;5248970;28;19916;-62
2022/06/27 07:29:13;;;;;;;;;;;;;;;-141.48;0.00;88875.16;5249149;28;19916;-63
2022/06/27 07:31:43;;;;;;;;;;;;;;;-141.48;0.00;75271.28;5249335;28;19912;-63
2022/06/27 07:34:17;;;;;;;;;;;;;;;-141.48;0.00;88875.16;5248819;28;19912;-63
2022/06/27 07:36:49;;;;;;;;;;;;;;;-141.48;0.00;88875.16;5249262;28;19923;-62
2022/06/27 07:39:19;;;;;;;;;;;;;;;19.51;nan;64976.28;5249355;28;19919;-62
2022/06/27 07:41:51;;;;;;;;;;;;;;;-141.48;0.00;88875.16;5249350;28;19912;-62
2022/06/27 07:44:25;;;;;;;;;;;;;;;-141.48;0.00;88875.16;5249120;28;19953;-62
2022/06/27 07:46:56;;;;;;;;;;;;;;;-141.48;0.00;88875.16;5249181;28;19999;-62
2022/06/27 07:49:26;;;;;;;;;;;;;;;-141.48;0.00;88875.16;5249544;28;20478;-62
2022/06/27 07:51:56;;;;;;;;;;;;;;;-141.48;0.00;88875.16;5249021;28;20007;-62
2022/06/27 07:54:27;;;;;;;;;;;;;;;-141.48;0.00;88875.16;5248686;28;19999;-62
2022/06/27 07:56:58;;;;;;;;;;;;;;;-141.48;0.00;88875.16;5248875;28;19917;-62
2022/06/27 07:59:29;;;;;;;;;;;;;;;-141.48;0.00;88875.16;5249082;28;19912;-62
2022/06/27 08:02:00;;;;;;;;;;;;;;;-141.48;0.00;88875.16;5251107;28;19942;-62
2022/06/27 08:04:31;;;;;;;;;;;;;;;-141.48;0.00;88875.16;5252537;28;20383;-62
2022/06/27 08:07:01;;;;;;;;;;;;;;;-141.48;0.00;88875.16;5252649;28;19958;-62
2022/06/27 08:09:31;;;;;;;;;;;;;;;-141.48;0.00;88875.16;5252862;28;20003;-62
2022/06/27 08:12:02;;;;;;;;;;;;;;;-141.48;0.00;88875.16;5253023;28;19916;-62
2022/06/27 08:14:33;;;;;;;;;;;;;;;-141.48;0.00;88875.16;5252312;28;19966;-61
2022/06/27 08:17:03;;;;;;;;;;;;;;;-141.48;0.00;88875.16;5252723;28;19916;-62
2022/06/27 08:19:33;;;;;;;;;;;;;;;-141.48;0.00;88875.16;5252793;28;20278;-65
2022/06/27 08:22:04;;;;;;;;;;;;;;;-141.48;0.00;88875.16;5252582;28;19912;-62
2022/06/27 08:24:37;;;;;;;;;;;;;;;-141.48;0.00;88875.16;5270345;28;19919;-62
2022/06/27 08:27:08;;;;;;;;;;;;;;;-141.48;0.00;88875.16;5251820;28;20295;-62
2022/06/27 08:29:42;;;;;;;;;;;;;;;-141.48;0.00;88875.16;5270671;28;19919;-62
2022/06/27 08:32:12;;;;;;;;;;;;;;;-141.48;0.00;88875.16;5252314;28;19916;-62
2022/06/27 08:34:47;;;;;;;;;;;;;;;-141.48;0.00;88875.16;5251847;28;20376;-62
2022/06/27 08:37:17;;;;;;;;;;;;;;;-141.48;0.00;88875.16;5252240;28;19916;-62
2022/06/27 08:39:48;;;;;;;;;;;;;;;-141.48;0.00;88875.16;5252167;28;20330;-61
2022/06/27 08:42:20;;;;;;;;;;;;;;;-141.48;0.00;88875.16;5252198;28;19998;-62
2022/06/27 08:44:57;;;;;;;;;;;;;;;-141.48;0.00;88875.16;5251774;28;19919;-62
2022/06/27 08:47:30;;;;;;;;;;;;;;;-141.48;0.00;88875.16;5252315;28;20347;-62
2022/06/27 08:50:04;;;;;;;;;;;;;;;-141.48;0.00;88875.16;5251891;28;19912;-62
2022/06/27 08:52:39;;;;;;;;;;;;;;;-141.48;0.00;88875.16;5251932;28;19916;-62
2022/06/27 08:55:10;;;;;;;;;;;;;;;-141.48;0.00;88875.16;5251405;28;19922;-62
2022/06/27 08:57:43;;;;;;;;;;;;;;;-141.48;0.00;88875.16;5252073;28;19912;-62
2022/06/27 09:00:17;;;;;;;;;;;;;;;-141.48;0.00;88875.16;5252286;28;19983;-62
2022/06/27 09:02:48;;;;;;;;;;;;;;;-141.48;0.00;88875.16;5252717;28;19959;-62
2022/06/27 09:05:18;;;;;;;;;;;;;;;-141.48;0.00;88875.16;5252034;28;19944;-62
2022/06/27 09:07:50;;;;;;;;;;;;;;;19.51;nan;64976.28;5251713;28;19977;-63
2022/06/27 09:10:41;;;;;;;;;;;;;;;-141.48;0.00;88875.16;5251643;28;19934;-64
2022/06/27 09:13:13;;;;;;;;;;;;;;;19.51;0.00;64973.41;5251382;28;19995;-62
2022/06/27 09:15:47;;;;;;;;;;;;;;;-141.48;nan;64415.63;5251397;28;19951;-62
2022/06/27 09:18:19;;;;;;;;;;;;;;;-141.48;0.00;88875.16;5251642;28;20064;-62
2022/06/27 09:20:50;;;;;;;;;;;;;;;-141.48;0.00;88875.16;5251402;28;19921;-62
2022/06/27 09:23:28;;;;;;;;;;;;;;;19.51;nan;64976.28;5251329;28;19912;-63
2022/06/27 09:26:00;;;;;;;;;;;;;;;19.51;nan;64976.28;5269400;28;19923;-62
2022/06/27 09:28:37;;;;;;;;;;;;;;;19.51;nan;64976.28;5251436;28;19916;-62
2022/06/27 09:31:11;;;;;;;;;;;;;;;19.51;nan;64976.28;5251415;28;20307;-62
2022/06/27 09:33:42;;;;;;;;;;;;;;;-141.48;0.00;88875.16;5250872;28;19912;-63
2022/06/27 09:36:16;;;;;;;;;;;;;;;19.51;nan;64976.28;5251281;28;19927;-62
2022/06/27 09:38:48;;;;;;;;;;;;;;;-141.48;0.00;88875.16;5269650;28;19912;-62
2022/06/27 09:41:19;;;;;;;;;;;;;;;-141.48;0.00;88875.16;5251133;28;19912;-64
2022/06/27 09:43:50;;;;;;;;;;;;;;;-141.48;0.00;88875.16;5250716;28;19912;-63
2022/06/27 09:46:25;;;;;;;;;;;;;;;-141.48;0.00;88875.16;5250783;28;19970;-62
2022/06/27 09:48:58;;;;;;;;;;;;;;;-141.48;0.00;88875.16;5251203;28;19912;-63
2022/06/27 09:51:28;;;;;;;;;;;;;;;-141.48;0.00;88875.16;5250827;28;19919;-63
2022/06/27 09:54:00;;;;;;;;;;;;;;;-141.48;0.00;88875.16;5250692;28;19912;-63
2022/06/27 09:56:32;;;;;;;;;;;;;;;-141.48;0.00;88875.16;5250546;28;19952;-62
2022/06/27 09:59:03;;;;;;;;;;;;;;;19.51;nan;64976.28;5250028;28;19916;-63
2022/06/27 10:01:34;;;;;;;;;;;;;;;21.66;nan;64790.50;5250587;28;19912;-63
2022/06/27 10:04:04;;;;;;;;;;;;;;;21.66;nan;64790.50;5250375;28;19939;-63
2022/06/27 10:06:36;;;;;;;;;;;;;;;21.52;nan;64803.41;5250328;28;19916;-62
2022/06/27 10:09:08;;;;;;;;;;;;;;;-141.48;0.00;88875.16;5250635;28;19918;-63
2022/06/27 10:11:38;;;;;;;;;;;;;;;21.52;nan;64803.41;5250070;28;20390;-66
2022/06/27 10:14:20;;;;;;;;;;;;;;;-141.48;0.00;88875.16;5261556;28;19940;-65
2022/06/27 10:16:59;;;;;;;;;;;;;;;-141.48;0.00;88875.16;5249740;28;20404;-65
2022/06/27 10:19:29;;;;;;;;;;;;;;;-141.48;0.00;64803.41;5249988;28;19935;-64
2022/06/27 10:22:00;;;;;;;;;;;;;;;21.52;nan;64803.41;5250069;28;19912;-61
2022/06/27 10:24:32;;;;;;;;;;;;;;;21.52;nan;64803.41;5249644;28;20283;-60
2022/06/27 10:27:03;;;;;;;;;;;;;;;-141.48;0.00;88875.16;5249821;28;19912;-62
2022/06/27 10:29:37;;;;;;;;;;;;;;;-141.48;0.00;88875.16;5269602;28;19920;-63
2022/06/27 10:32:27;;;;;;;;;;;;;;;-141.48;0.00;88875.16;5232635;28;20411;-63
2022/06/27 10:35:04;;;;;;;;;;;;;;;21.52;nan;64803.41;5248802;28;19916;-64
2022/06/27 10:37:35;;;;;;;;;;;;;;;-141.48;nan;88875.16;5249530;28;19916;-64
2022/06/27 10:40:21;;;;;;;;;;;;;;;-141.48;0.00;88875.16;5249832;28;19919;-65
2022/06/27 10:42:52;;;;;;;;;;;;;;;-141.48;nan;150503.25;5249971;28;19965;-65
2022/06/27 10:45:24;;;;;;;;;;;;;;;-141.48;0.00;88875.16;5249435;28;20344;-64
2022/06/27 10:47:58;;;;;;;;;;;;;;;-141.48;0.00;88875.16;5249696;28;20069;-63
2022/06/27 10:50:39;;;;;;;;;;;;;;;-141.48;0.00;88875.16;5249186;28;19912;-63
2022/06/27 10:53:18;;;;;;;;;;;;;;;-141.48;0.00;88875.16;5249386;28;19912;-63
2022/06/27 10:55:49;;;;;;;;;;;;;;;-141.48;0.00;88875.16;5249224;28;19963;-63
2022/06/27 10:58:20;;;;;;;;;;;;;;;-141.48;0.00;88875.16;5267959;28;20323;-64
2022/06/27 11:00:51;;;;;;;;;;;;;;;-141.48;0.00;88875.16;5249482;28;19974;-64
2022/06/27 11:03:23;;;;;;;;;;;;;;;-141.48;0.00;88875.16;5249319;28;19932;-63
2022/06/27 11:05:58;;;;;;;;;;;;;;;-141.48;0.00;88875.16;5249115;28;19923;-66
2022/06/27 11:08:31;;;;;;;;;;;;;;;-141.48;0.00;88875.16;5249547;28;19919;-65
2022/06/27 11:11:02;;;;;;;;;;;;;;;-141.48;0.00;88875.16;5249283;28;20375;-66
2022/06/27 11:13:35;;;;;;;;;;;;;;;-141.48;0.00;88875.16;5248849;28;20045;-63
2022/06/27 11:16:07;;;;;;;;;;;;;;;-141.48;0.00;88875.16;5248968;28;19916;-61
2022/06/27 11:18:45;;;;;;;;;;;;;;;-141.48;0.00;88875.16;5249153;28;19912;-60
2022/06/27 11:21:18;;;;;;;;;;;;;;;-141.48;0.00;88875.16;5249247;28;19919;-59
2022/06/27 11:23:49;;;;;;;;;;;;;;;-141.48;0.00;88875.16;5239887;28;19920;-59
2022/06/27 11:26:21;;;;;;;;;;;;;;;-141.48;0.00;88875.16;5246847;28;19916;-61
2022/06/27 11:31:58;;;;;;;;;;;;;;;-141.48;0.00;88875.16;5288557;28;20303;-58
2022/06/27 11:34:31;;;;;;;;;;;;;;;-141.48;0.00;88875.16;5245592;28;20379;-59
2022/06/27 11:37:04;;;;;;;;;;;;;;;-141.48;0.00;88875.16;5232785;28;20285;-60
2022/06/27 11:39:34;;;;;;;;;;;;;;;-141.48;0.00;88875.16;5232716;28;20000;-59
2022/06/27 11:42:12;;;;;;;;;;;;;;;-141.48;0.00;88875.16;5243560;28;19995;-59
2022/06/27 11:45:02;;;;;;;;;;;;;;;-141.48;0.00;88875.16;5270897;28;20380;-60
2022/06/27 11:47:34;;;;;;;;;;;;;;;-141.48;0.00;88875.16;5266151;28;19920;-61
2022/06/27 11:50:06;;;;;;;;;;;;;;;-141.48;0.00;88875.16;5274679;28;20272;-60
2022/06/27 11:52:37;;;;;;;;;;;;;;;-141.48;0.00;88875.16;5274325;28;19912;-61
2022/06/27 11:55:09;;;;;;;;;;;;;;;-141.48;0.00;88875.16;5274061;28;19912;-63
2022/06/27 11:57:44;;;;;;;;;;;;;;;-141.48;0.00;88875.16;5274520;28;19946;-59
2022/06/27 12:00:19;;;;;;;;;;;;;;;-141.48;0.00;88875.16;5268614;28;19920;-58
2022/06/27 12:03:08;;;;;;;;;;;;;;;-141.48;0.00;88875.16;5266073;28;19912;-60
2022/06/27 12:05:39;;;;;;;;;;;;;;;-141.48;0.00;88875.16;5249824;28;19952;-61
2022/06/27 12:08:11;;;;;;;;;;;;;;;-141.48;0.00;88875.16;5248807;28;19923;-61
2022/06/27 12:11:16;;;;;;;;;;;;;;;-141.48;0.00;88875.16;5266930;28;19970;-61
2022/06/27 12:13:37;;;;;;;;;;;;;;;-141.48;0.00;88875.16;5269897;28;19957;-61
2022/06/27 12:16:11;;;;;;;;;;;;;;;-141.48;0.00;88875.16;5252225;28;20355;-60
2022/06/27 12:18:43;;;;;;;;;;;;;;;-141.48;0.00;88875.16;5269807;28;19918;-61
2022/06/27 12:21:13;;;;;;;;;;;;;;;-141.48;0.00;88875.16;5252083;28;20215;-60
2022/06/27 12:23:44;;;;;;;;;;;;;;;-141.48;0.00;88875.16;5252019;28;19999;-59
2022/06/27 12:26:14;;;;;;;;;;;;;;;-141.48;0.00;88875.16;5237411;28;19913;-58
2022/06/27 12:28:46;;;;;;;;;;;;;;;-141.48;0.00;88875.16;5231014;28;19919;-60
2022/06/27 12:31:17;;;;;;;;;;;;;;;-141.48;0.00;88875.16;5231315;28;20003;-60
2022/06/27 12:33:47;;;;;;;;;;;;;;;-141.48;0.00;88875.16;5229481;28;20003;-60
2022/06/27 12:36:18;;;;;;;;;;;;;;;-141.48;0.00;88875.16;5231029;28;19948;-61
2022/06/27 12:38:48;;;;;;;;;;;;;;;-141.48;0.00;88875.16;5230796;28;19916;-61
2022/06/27 12:41:18;;;;;;;;;;;;;;;-141.48;0.00;88875.16;5231011;28;19912;-61
2022/06/27 12:43:49;;;;;;;;;;;;;;;-141.48;0.00;88875.16;5230942;28;19913;-66
2022/06/27 12:46:20;;;;;;;;;;;;;;;-141.48;0.00;88875.16;5230896;28;19961;-59
2022/06/27 12:48:51;;;;;;;;;;;;;;;-141.48;0.00;88875.16;5230329;28;20420;-60
2022/06/27 12:51:22;;;;;;;;;;;;;;;-141.48;0.00;88875.16;5231003;28;20011;-61
2022/06/27 12:53:54;;;;;;;;;;;;;;;-141.48;0.00;88875.16;5230363;28;20285;-61
2022/06/27 12:56:25;;;;;;;;;;;;;;;-141.48;0.00;88875.16;5230538;28;20005;-63
2022/06/27 12:58:55;;;;;;;;;;;;;;;-141.48;0.00;88875.16;5230586;28;19954;-63
2022/06/27 13:01:26;;;;;;;;;;;;;;;-141.48;0.00;88875.16;5230832;28;20388;-62
2022/06/27 13:03:57;;;;;;;;;;;;;;;-141.48;0.00;88875.16;5230252;28;19920;-62
2022/06/27 13:06:27;;;;;;;;;;;;;;;-141.48;0.00;88875.16;5230421;28;19924;-62
2022/06/27 13:09:01;;;;;;;;;;;;;;;-141.48;0.00;88875.16;5230363;28;19920;-62
2022/06/27 13:11:32;;;;;;;;;;;;;;;-141.48;0.00;88875.16;5230581;28;19963;-61
2022/06/27 13:14:02;;;;;;;;;;;;;;;-141.48;0.00;88875.16;5229997;28;19963;-61
2022/06/27 13:16:32;;;;;;;;;;;;;;;-141.48;0.00;88875.16;5230228;28;20094;-64
2022/06/27 13:19:03;;;;;;;;;;;;;;;-141.48;0.00;88875.16;5248395;28;19916;-62
2022/06/27 13:21:33;;;;;;;;;;;;;;;-141.48;0.00;88875.16;5229888;28;19917;-62
2022/06/27 13:24:03;;;;;;;;;;;;;;;-141.48;0.00;88875.16;5248087;28;20296;-61
2022/06/27 13:26:34;;;;;;;;;;;;;;;-141.48;0.00;88875.16;5230291;28;19912;-63
2022/06/27 13:29:04;;;;;;;;;;;;;;;-141.48;0.00;88875.16;5230317;28;19912;-63